createdAt,value
2023-10-14T00:00:38.625Z,20.55
2023-10-14T00:02:41.619Z,25.33
2023-10-14T00:04:47.226Z,24.85
2023-10-14T00:06:50.144Z,20.60
2023-10-14T00:09:03.864Z,18.13
2023-10-14T00:11:09.098Z,17.65
2023-10-14T00:13:12.122Z,19.27
2023-10-14T00:15:14.365Z,21.70
2023-10-14T00:17:20.544Z,18.90
2023-10-14T00:19:24.385Z,20.00
2023-10-14T00:21:28.487Z,19.40
2023-10-14T00:23:32.215Z,21.00
2023-10-14T00:25:35.668Z,12.85
2023-10-14T00:27:38.514Z,18.52
2023-10-14T00:29:40.483Z,16.10
2023-10-14T00:31:46.666Z,13.93
2023-10-14T00:33:49.288Z,14.30
2023-10-14T00:35:56.810Z,10.85
2023-10-14T00:38:09.604Z,10.65
2023-10-14T00:40:24.081Z,9.63
2023-10-14T00:42:26.000Z,11.82
2023-10-14T00:44:27.937Z,12.55
2023-10-14T00:46:33.412Z,11.05
2023-10-14T00:48:41.592Z,13.02
2023-10-14T00:50:43.545Z,9.93
2023-10-14T00:52:45.753Z,12.38
2023-10-14T00:55:00.325Z,9.75
2023-10-14T00:57:21.568Z,10.23
2023-10-14T00:59:24.303Z,10.15
2023-10-14T01:01:32.435Z,7.93
2023-10-14T01:03:36.249Z,15.38
2023-10-14T01:07:41.184Z,13.65
2023-10-14T01:09:46.556Z,13.85
2023-10-14T01:11:48.485Z,10.10
2023-10-14T01:13:52.543Z,8.93
2023-10-14T01:16:10.238Z,11.43
2023-10-14T01:18:16.207Z,14.98
2023-10-14T01:20:19.087Z,13.95
2023-10-14T01:22:21.357Z,9.37
2023-10-14T01:24:23.578Z,13.85
2023-10-14T01:26:29.058Z,15.63
2023-10-14T01:28:31.713Z,9.10
2023-10-14T01:30:40.190Z,9.07
2023-10-14T01:32:51.229Z,13.13
2023-10-14T01:35:00.969Z,12.95
2023-10-14T01:37:14.398Z,11.75
2023-10-14T01:39:23.486Z,12.00
2023-10-14T01:41:26.642Z,14.40
2023-10-14T01:43:32.268Z,13.95
2023-10-14T01:45:41.473Z,11.18
2023-10-14T01:47:49.421Z,13.88
2023-10-14T01:49:53.352Z,11.40
2023-10-14T01:51:57.947Z,9.65
2023-10-14T01:54:00.326Z,15.13
2023-10-14T01:56:03.313Z,13.20
2023-10-14T01:58:10.156Z,11.95
2023-10-14T02:00:37.733Z,10.63
2023-10-14T02:02:41.158Z,11.50
2023-10-14T02:04:47.277Z,10.75
2023-10-14T02:07:04.454Z,7.63
2023-10-14T02:09:06.794Z,15.77
2023-10-14T02:11:09.586Z,10.68
2023-10-14T02:13:13.810Z,13.07
2023-10-14T02:15:16.141Z,14.02
2023-10-14T02:17:18.473Z,15.50
2023-10-14T02:19:23.706Z,8.73
2023-10-14T02:21:29.230Z,15.32
2023-10-14T02:23:46.213Z,10.70
2023-10-14T02:25:57.387Z,10.77
2023-10-14T02:27:59.644Z,10.68
2023-10-14T02:30:02.054Z,14.70
2023-10-14T02:32:04.533Z,10.27
2023-10-14T02:34:09.893Z,13.73
2023-10-14T02:36:17.904Z,13.38
2023-10-14T02:38:19.710Z,10.68
2023-10-14T02:40:26.955Z,13.35
2023-10-14T02:42:28.807Z,10.38
2023-10-14T02:44:35.330Z,9.90
2023-10-14T02:46:45.337Z,14.90
2023-10-14T02:48:54.626Z,11.85
2023-10-14T02:50:58.326Z,12.15
2023-10-14T02:53:08.278Z,10.25
2023-10-14T02:55:24.206Z,11.32
2023-10-14T02:57:28.136Z,11.00
2023-10-14T02:59:43.523Z,10.02
2023-10-14T03:01:46.285Z,9.52
2023-10-14T03:03:48.685Z,12.60
2023-10-14T03:05:53.760Z,11.95
2023-10-14T03:07:55.788Z,12.10
2023-10-14T03:10:19.903Z,9.35
2023-10-14T03:12:24.838Z,11.02
2023-10-14T03:14:26.606Z,11.90
2023-10-14T03:16:29.537Z,13.35
2023-10-14T03:18:42.786Z,9.18
2023-10-14T03:21:07.648Z,21.60
2023-10-14T03:23:15.018Z,13.00
2023-10-14T03:25:25.063Z,12.85
2023-10-14T03:27:26.907Z,14.77
2023-10-14T03:29:30.247Z,11.85
2023-10-14T03:31:37.550Z,10.55
2023-10-14T03:33:45.498Z,11.80
2023-10-14T03:36:10.261Z,10.85
2023-10-14T03:38:27.492Z,13.07
2023-10-14T03:40:35.326Z,16.25
2023-10-14T03:42:37.100Z,13.35
2023-10-14T03:44:43.233Z,13.90
2023-10-14T03:46:45.279Z,12.98
2023-10-14T03:48:48.433Z,17.02
2023-10-14T03:50:51.716Z,12.18
2023-10-14T03:52:57.196Z,15.63
2023-10-14T03:54:59.142Z,10.10
2023-10-14T03:57:04.534Z,11.50
2023-10-14T03:59:07.857Z,10.25
2023-10-14T04:01:09.819Z,12.05
2023-10-14T04:03:15.442Z,14.25
2023-10-14T04:05:20.430Z,10.35
2023-10-14T04:07:29.896Z,12.40
2023-10-14T04:09:39.672Z,14.90
2023-10-14T04:11:41.937Z,10.85
2023-10-14T04:14:00.387Z,14.52
2023-10-14T04:16:02.231Z,11.93
2023-10-14T04:18:13.681Z,10.00
2023-10-14T04:20:38.252Z,14.13
2023-10-14T04:26:51.002Z,15.32
2023-10-14T04:28:55.951Z,19.92
2023-10-14T04:31:02.399Z,10.45
2023-10-14T04:33:04.527Z,14.85
2023-10-14T04:35:06.987Z,17.70
2023-10-14T04:37:09.800Z,13.60
2023-10-14T04:39:15.889Z,15.35
2023-10-14T04:41:25.765Z,19.88
2023-10-14T04:43:27.530Z,18.25
2023-10-14T04:45:33.357Z,16.38
2023-10-14T04:47:38.355Z,18.55
2023-10-14T04:49:43.402Z,20.23
2023-10-14T04:51:48.337Z,20.80
2023-10-14T04:53:53.589Z,13.43
2023-10-14T04:55:56.106Z,18.35
2023-10-14T04:58:08.915Z,16.42
2023-10-14T05:00:21.340Z,19.42
2023-10-14T05:02:24.833Z,15.05
2023-10-14T05:04:32.654Z,19.88
2023-10-14T05:06:43.193Z,18.00
2023-10-14T05:08:46.955Z,16.92
2023-10-14T05:10:54.146Z,16.95
2023-10-14T05:12:56.804Z,19.00
2023-10-14T05:14:58.766Z,16.30
2023-10-14T05:17:06.456Z,19.67
2023-10-14T05:19:12.888Z,15.40
2023-10-14T05:21:35.292Z,19.00
2023-10-14T05:23:39.882Z,10.57
2023-10-14T05:25:45.556Z,16.15
2023-10-14T05:27:47.834Z,27.58
2023-10-14T05:29:53.746Z,16.25
2023-10-14T05:32:11.586Z,29.85
2023-10-14T05:34:15.037Z,17.30
2023-10-14T05:36:16.877Z,26.63
2023-10-14T05:38:20.677Z,17.10
2023-10-14T05:42:28.341Z,18.92
2023-10-14T05:44:30.338Z,18.08
2023-10-14T05:46:32.262Z,16.33
2023-10-14T05:48:35.087Z,17.20
2023-10-14T05:50:36.903Z,18.73
2023-10-14T05:52:39.701Z,14.60
2023-10-14T05:54:47.157Z,27.33
2023-10-14T05:56:52.723Z,11.50
2023-10-14T05:58:55.186Z,16.35
2023-10-14T06:00:58.193Z,16.77
2023-10-14T06:03:00.936Z,21.17
2023-10-14T06:05:03.514Z,18.15
2023-10-14T06:07:05.556Z,18.50
2023-10-14T06:09:09.687Z,17.42
2023-10-14T06:11:13.939Z,22.13
2023-10-14T06:13:16.365Z,20.05
2023-10-14T06:15:20.704Z,20.83
2023-10-14T06:17:23.151Z,17.83
2023-10-14T06:19:25.942Z,14.60
2023-10-14T06:21:28.994Z,15.53
2023-10-14T06:23:31.149Z,17.47
2023-10-14T06:25:34.023Z,23.42
2023-10-14T06:27:35.909Z,20.23
2023-10-14T06:29:38.476Z,24.15
2023-10-14T06:31:41.879Z,21.85
2023-10-14T06:33:45.223Z,19.98
2023-10-14T06:35:55.600Z,17.58
2023-10-14T06:38:00.203Z,19.13
2023-10-14T06:40:03.993Z,19.58
2023-10-14T06:42:06.474Z,20.35
2023-10-14T06:44:10.530Z,19.73
2023-10-14T06:46:18.218Z,17.80
2023-10-14T06:48:22.595Z,17.92
2023-10-14T06:50:28.184Z,21.73
2023-10-14T06:52:31.691Z,21.00
2023-10-14T06:54:37.449Z,14.80
2023-10-14T06:56:41.549Z,18.80
2023-10-14T06:58:46.013Z,23.98
2023-10-14T07:00:49.819Z,17.23
2023-10-14T07:02:51.590Z,20.27
2023-10-14T07:04:53.578Z,23.40
2023-10-14T07:07:00.279Z,23.60
2023-10-14T07:09:11.464Z,27.67
2023-10-14T07:11:13.284Z,17.27
2023-10-14T07:13:15.425Z,22.73
2023-10-14T07:15:17.517Z,23.65
2023-10-14T07:17:24.254Z,23.63
2023-10-14T07:19:27.185Z,23.55
2023-10-14T07:21:30.558Z,27.58
2023-10-14T07:23:38.015Z,22.38
2023-10-14T07:25:44.330Z,22.50
2023-10-14T07:27:52.861Z,24.73
2023-10-14T07:29:55.377Z,24.67
2023-10-14T07:31:57.441Z,32.22
2023-10-14T07:34:10.338Z,35.00
2023-10-14T07:36:13.303Z,34.33
2023-10-14T07:38:16.448Z,33.43
2023-10-14T07:40:25.628Z,27.48
2023-10-14T07:42:28.344Z,28.58
2023-10-14T07:44:30.125Z,30.85
2023-10-14T07:46:32.103Z,36.05
2023-10-14T07:48:34.047Z,31.45
2023-10-14T07:50:40.239Z,35.80
2023-10-14T07:52:43.989Z,34.00
2023-10-14T07:54:47.564Z,37.78
2023-10-14T07:56:49.599Z,33.75
2023-10-14T07:58:55.392Z,34.60
2023-10-14T08:00:58.114Z,32.92
2023-10-14T08:03:07.624Z,29.90
2023-10-14T08:05:10.702Z,28.55
2023-10-14T08:07:13.042Z,30.98
2023-10-14T08:09:29.231Z,26.75
2023-10-14T08:11:37.924Z,26.05
2023-10-14T08:13:41.904Z,22.40
2023-10-14T08:15:44.126Z,20.52
2023-10-14T08:17:47.271Z,25.02
2023-10-14T08:19:49.312Z,25.92
2023-10-14T08:21:54.896Z,19.38
2023-10-14T08:23:59.520Z,23.17
2023-10-14T08:26:04.800Z,22.08
2023-10-14T08:28:07.684Z,18.73
2023-10-14T08:30:12.939Z,22.58
2023-10-14T08:32:15.878Z,19.45
2023-10-14T08:34:17.702Z,18.70
2023-10-14T08:36:19.745Z,22.02
2023-10-14T08:38:23.844Z,14.88
2023-10-14T08:40:28.081Z,18.27
2023-10-14T08:42:30.646Z,14.95
2023-10-14T08:44:33.187Z,24.70
2023-10-14T08:46:37.321Z,19.05
2023-10-14T08:48:40.202Z,16.10
2023-10-14T08:50:43.007Z,16.23
2023-10-14T08:52:46.806Z,20.33
2023-10-14T08:54:50.636Z,15.55
2023-10-14T08:56:52.901Z,17.50
2023-10-14T08:58:56.149Z,19.27
2023-10-14T09:00:59.481Z,17.35
2023-10-14T09:03:03.457Z,22.15
2023-10-14T09:05:05.820Z,17.95
2023-10-14T09:07:14.911Z,14.85
2023-10-14T09:09:19.141Z,17.98
2023-10-14T09:11:29.303Z,12.43
2023-10-14T09:13:35.388Z,12.85
2023-10-14T09:15:41.996Z,13.70
2023-10-14T09:17:44.617Z,17.13
2023-10-14T09:19:50.715Z,13.25
2023-10-14T09:21:59.012Z,13.75
2023-10-14T09:24:09.926Z,14.43
2023-10-14T09:26:14.375Z,10.65
2023-10-14T09:28:18.933Z,10.75
2023-10-14T09:30:21.473Z,20.52
2023-10-14T09:32:23.313Z,15.88
2023-10-14T09:34:25.782Z,12.05
2023-10-14T09:36:27.986Z,19.97
2023-10-14T09:38:33.743Z,17.35
2023-10-14T09:40:36.969Z,15.85
2023-10-14T09:42:39.303Z,12.07
2023-10-14T09:44:46.978Z,13.27
2023-10-14T09:46:49.640Z,15.95
2023-10-14T09:48:52.536Z,12.37
2023-10-14T09:51:02.342Z,14.10
2023-10-14T09:53:09.890Z,13.35
2023-10-14T09:55:16.263Z,16.77
2023-10-14T09:57:18.899Z,13.85
2023-10-14T09:59:22.785Z,13.20
2023-10-14T10:01:26.875Z,15.00
2023-10-14T10:03:33.532Z,12.05
2023-10-14T10:05:40.996Z,20.63
2023-10-14T10:08:20.225Z,16.30
2023-10-14T10:10:40.161Z,16.70
2023-10-14T10:12:43.075Z,13.07
2023-10-14T10:14:45.383Z,11.88
2023-10-14T10:16:50.709Z,12.43
2023-10-14T10:19:00.892Z,14.45
2023-10-14T10:21:03.446Z,10.82
2023-10-14T10:23:08.286Z,9.93
2023-10-14T10:25:12.987Z,18.88
2023-10-14T10:27:18.504Z,8.63
2023-10-14T10:29:24.001Z,9.95
2023-10-14T10:31:26.350Z,13.32
2023-10-14T10:33:53.900Z,9.38
2023-10-14T10:36:04.801Z,14.95
2023-10-14T10:38:12.060Z,9.18
2023-10-14T10:40:18.465Z,14.48
2023-10-14T10:42:21.562Z,9.68
2023-10-14T10:44:26.110Z,14.88
2023-10-14T10:46:42.960Z,10.90
2023-10-14T10:48:47.205Z,13.25
2023-10-14T10:50:52.751Z,16.05
2023-10-14T10:53:10.219Z,9.32
2023-10-14T10:55:12.405Z,10.45
2023-10-14T10:57:14.589Z,6.80
2023-10-14T10:59:17.234Z,11.95
2023-10-14T11:01:21.169Z,10.55
2023-10-14T11:03:24.847Z,11.07
2023-10-14T11:05:29.480Z,9.18
2023-10-14T11:07:33.942Z,8.40
2023-10-14T11:09:41.031Z,9.38
2023-10-14T11:11:43.049Z,7.05
2023-10-14T11:13:45.011Z,7.15
2023-10-14T11:15:50.212Z,6.57
2023-10-14T11:17:58.892Z,9.85
2023-10-14T11:20:01.149Z,9.13
2023-10-14T11:22:05.670Z,11.13
2023-10-14T11:24:10.364Z,10.32
2023-10-14T11:26:19.852Z,7.97
2023-10-14T11:28:27.899Z,12.15
2023-10-14T11:30:32.689Z,22.67
2023-10-14T11:32:35.676Z,6.03
2023-10-14T11:34:37.973Z,9.90
2023-10-14T11:36:45.336Z,6.55
2023-10-14T11:38:50.402Z,11.07
2023-10-14T11:40:54.022Z,12.60
2023-10-14T11:42:57.465Z,9.48
2023-10-14T11:47:08.615Z,10.00
2023-10-14T11:49:15.399Z,8.90
2023-10-14T11:51:21.531Z,8.73
2023-10-14T11:53:32.723Z,10.95
2023-10-14T11:55:34.785Z,7.15
2023-10-14T11:57:36.640Z,12.43
2023-10-14T11:59:43.847Z,6.00
2023-10-14T12:01:47.259Z,13.80
2023-10-14T12:06:00.442Z,7.93
2023-10-14T12:08:02.866Z,7.78
2023-10-14T12:10:07.595Z,7.70
2023-10-14T12:12:09.947Z,11.18
2023-10-14T12:14:16.927Z,12.23
2023-10-14T12:16:19.833Z,10.60
2023-10-14T12:18:22.256Z,10.27
2023-10-14T12:20:26.035Z,7.00
2023-10-14T12:22:27.948Z,10.88
2023-10-14T12:24:29.852Z,8.02
2023-10-14T12:26:38.886Z,11.77
2023-10-14T12:28:42.526Z,11.10
2023-10-14T12:30:47.908Z,8.93
2023-10-14T12:32:50.561Z,13.93
2023-10-14T12:34:54.278Z,10.85
2023-10-14T12:36:56.233Z,12.80
2023-10-14T12:38:58.086Z,11.77
2023-10-14T12:41:03.785Z,8.27
2023-10-14T12:43:07.049Z,5.30
2023-10-14T12:45:14.531Z,10.52
2023-10-14T12:47:16.718Z,9.38
2023-10-14T12:49:24.399Z,12.48
2023-10-14T12:51:34.839Z,10.20
2023-10-14T12:53:37.573Z,6.20
2023-10-14T12:55:43.355Z,10.23
2023-10-14T12:57:46.803Z,9.13
2023-10-14T13:02:00.826Z,8.80
2023-10-14T13:04:07.190Z,6.97
2023-10-14T13:06:10.334Z,9.55
2023-10-14T13:08:12.238Z,9.38
2023-10-14T13:10:19.883Z,8.13
2023-10-14T13:12:21.804Z,10.27
2023-10-14T13:14:30.313Z,10.23
2023-10-14T13:16:33.122Z,8.48
2023-10-14T13:18:35.158Z,9.60
2023-10-14T13:20:38.425Z,8.52
2023-10-14T13:22:41.193Z,10.20
2023-10-14T13:24:51.680Z,10.65
2023-10-14T13:26:53.656Z,10.98
2023-10-14T13:28:56.915Z,13.93
2023-10-14T13:31:00.115Z,12.05
2023-10-14T13:33:02.336Z,10.50
2023-10-14T13:35:06.957Z,15.70
2023-10-14T13:37:10.619Z,7.78
2023-10-14T13:39:19.274Z,11.30
2023-10-14T13:41:25.735Z,15.30
2023-10-14T13:43:28.024Z,12.30
2023-10-14T13:45:29.871Z,7.88
2023-10-14T13:47:33.101Z,9.07
2023-10-14T13:49:35.910Z,11.73
2023-10-14T13:51:37.880Z,8.30
2023-10-14T13:53:46.200Z,7.90
2023-10-14T13:55:54.938Z,9.77
2023-10-14T13:57:58.594Z,11.82
2023-10-14T14:00:01.071Z,7.18
2023-10-14T14:02:04.766Z,10.68
2023-10-14T14:04:10.006Z,9.43
2023-10-14T14:06:12.198Z,7.13
2023-10-14T14:08:15.091Z,6.38
2023-10-14T14:10:18.016Z,10.52
2023-10-14T14:12:21.400Z,11.85
2023-10-14T14:14:26.815Z,9.48
2023-10-14T14:16:28.942Z,11.25
2023-10-14T14:18:31.002Z,7.22
2023-10-14T14:20:33.703Z,9.32
2023-10-14T14:22:37.595Z,6.65
2023-10-14T14:24:39.439Z,13.05
2023-10-14T14:26:41.385Z,8.55
2023-10-14T14:28:44.138Z,13.82
2023-10-14T14:30:51.283Z,18.23
2023-10-14T14:32:55.159Z,11.20
2023-10-14T14:34:57.005Z,9.07
2023-10-14T14:36:59.224Z,11.85
2023-10-14T14:39:03.322Z,6.60
2023-10-14T14:41:05.411Z,10.52
2023-10-14T14:43:07.307Z,9.95
2023-10-14T14:45:29.667Z,13.57
2023-10-14T14:47:31.621Z,11.30
2023-10-14T14:49:34.093Z,13.90
2023-10-14T14:51:35.957Z,8.88
2023-10-14T14:53:38.239Z,11.40
2023-10-14T14:55:44.413Z,11.43
2023-10-14T14:57:51.316Z,11.30
2023-10-14T14:59:58.248Z,11.63
2023-10-14T15:02:03.641Z,11.98
2023-10-14T15:04:08.422Z,15.02
2023-10-14T15:06:10.144Z,16.17
2023-10-14T15:08:14.334Z,18.13
2023-10-14T15:10:16.425Z,10.82
2023-10-14T15:12:18.267Z,10.93
2023-10-14T15:14:20.117Z,12.13
2023-10-14T15:16:37.331Z,18.55
2023-10-14T15:18:45.085Z,11.25
2023-10-14T15:22:50.494Z,11.85
2023-10-14T15:24:55.354Z,19.60
2023-10-14T15:26:57.452Z,14.52
2023-10-14T15:28:59.323Z,8.88
2023-10-14T15:31:02.782Z,15.25
2023-10-14T15:35:17.768Z,14.30
2023-10-14T15:37:20.026Z,12.43
2023-10-14T15:39:38.658Z,13.93
2023-10-14T15:41:40.677Z,14.10
2023-10-14T15:43:42.910Z,12.13
2023-10-14T15:45:46.246Z,13.07
2023-10-14T15:47:48.862Z,19.52
2023-10-14T15:49:52.261Z,10.68
2023-10-14T15:51:54.682Z,17.70
2023-10-14T15:54:02.133Z,19.25
2023-10-14T15:56:04.419Z,14.20
2023-10-14T15:58:07.718Z,17.42
2023-10-14T16:00:16.236Z,15.80
2023-10-14T16:02:18.109Z,13.30
2023-10-14T16:04:21.149Z,14.93
2023-10-14T16:06:24.895Z,14.35
2023-10-14T16:08:26.633Z,15.27
2023-10-14T16:10:30.193Z,16.42
2023-10-14T16:14:36.439Z,16.98
2023-10-14T16:16:38.354Z,20.25
2023-10-14T16:18:40.263Z,20.80
2023-10-14T16:20:47.675Z,15.20
2023-10-14T16:22:51.318Z,16.30
2023-10-14T16:26:57.179Z,9.90
2023-10-14T16:29:04.562Z,16.67
2023-10-14T16:31:14.167Z,18.10
2023-10-14T16:33:16.493Z,11.30
2023-10-14T16:35:20.404Z,15.13
2023-10-14T16:37:22.218Z,11.10
2023-10-14T16:39:24.157Z,15.35
2023-10-14T16:41:26.600Z,15.60
2023-10-14T16:43:28.605Z,8.77
2023-10-14T16:45:32.580Z,12.90
2023-10-14T16:47:34.423Z,10.48
2023-10-14T16:49:36.365Z,19.80
2023-10-14T16:51:39.055Z,15.38
2023-10-14T16:53:43.814Z,17.92
2023-10-14T16:55:47.408Z,20.90
2023-10-14T16:59:52.473Z,17.20
2023-10-14T17:01:54.518Z,13.82
2023-10-14T17:04:01.000Z,15.95
2023-10-14T17:06:04.554Z,11.68
2023-10-14T17:08:09.554Z,47.03
2023-10-14T17:10:15.973Z,30.42
2023-10-14T17:12:20.861Z,37.15
2023-10-14T17:14:22.839Z,30.65
2023-10-14T17:16:24.995Z,30.20
2023-10-14T17:18:27.262Z,39.08
2023-10-14T17:20:31.538Z,39.05
2023-10-14T17:22:35.907Z,30.67
2023-10-14T17:24:38.970Z,35.28
2023-10-14T17:26:41.346Z,48.22
2023-10-14T17:28:44.756Z,44.50
2023-10-14T17:30:46.565Z,57.92
2023-10-14T17:32:48.805Z,50.28
2023-10-14T17:34:50.562Z,39.83
2023-10-14T17:36:52.509Z,38.92
2023-10-14T17:38:56.168Z,33.67
2023-10-14T17:43:05.992Z,30.75
2023-10-14T17:45:09.957Z,29.17
2023-10-14T17:47:12.368Z,25.20
2023-10-14T17:49:15.454Z,35.55
2023-10-14T17:51:17.624Z,26.60
2023-10-14T17:53:20.987Z,26.60
2023-10-14T17:55:24.606Z,25.35
2023-10-14T17:59:29.995Z,19.85
2023-10-14T18:03:34.913Z,23.85
2023-10-14T18:05:46.797Z,20.83
2023-10-14T18:07:49.140Z,16.98
2023-10-14T18:09:51.045Z,12.65
2023-10-14T18:11:53.704Z,22.67
2023-10-14T18:13:56.392Z,18.50
2023-10-14T18:15:58.496Z,15.45
2023-10-14T18:18:00.909Z,10.75
2023-10-14T18:20:04.058Z,10.55
2023-10-14T18:22:06.648Z,11.65
2023-10-14T18:24:11.772Z,15.30
2023-10-14T18:26:15.347Z,16.98
2023-10-14T18:30:22.159Z,14.20
2023-10-14T18:32:24.200Z,19.67
2023-10-14T18:34:25.990Z,17.35
2023-10-14T18:36:29.813Z,13.95
2023-10-14T18:40:34.156Z,20.27
2023-10-14T18:42:37.759Z,16.48
2023-10-14T18:44:40.356Z,12.95
2023-10-14T18:46:43.009Z,14.38
2023-10-14T18:48:47.015Z,11.02
2023-10-14T18:50:50.085Z,18.08
2023-10-14T18:52:53.293Z,9.10
2023-10-14T18:54:55.432Z,11.63
2023-10-14T18:56:57.252Z,14.13
2023-10-14T18:58:59.131Z,10.57
2023-10-14T19:01:01.254Z,11.90
2023-10-14T19:03:06.190Z,11.95
2023-10-14T19:05:09.766Z,17.27
2023-10-14T19:09:23.169Z,13.27
2023-10-14T19:11:26.147Z,17.75
2023-10-14T19:13:29.930Z,15.75
2023-10-14T19:15:33.797Z,11.13
2023-10-14T19:17:36.938Z,15.98
2023-10-14T19:19:38.776Z,17.90
2023-10-14T19:21:40.791Z,16.90
2023-10-14T19:23:44.212Z,12.18
2023-10-14T19:25:49.892Z,22.20
2023-10-14T19:27:52.295Z,21.25
2023-10-14T19:29:54.358Z,20.90
2023-10-14T19:31:57.354Z,19.48
2023-10-14T19:33:59.728Z,20.77
2023-10-14T19:36:06.823Z,24.40
2023-10-14T19:38:09.648Z,16.60
2023-10-14T19:40:16.526Z,20.33
2023-10-14T19:42:18.567Z,20.45
2023-10-14T19:44:22.469Z,22.20
2023-10-14T19:46:25.305Z,19.55
2023-10-14T19:48:31.124Z,29.13
2023-10-14T19:50:34.045Z,20.00
2023-10-14T19:52:40.924Z,20.35
2023-10-14T19:54:43.116Z,24.67
2023-10-14T19:56:45.088Z,23.73
2023-10-14T19:58:46.914Z,18.58
2023-10-14T20:00:51.206Z,18.52
2023-10-14T20:03:03.262Z,20.67
2023-10-14T20:05:06.106Z,23.83
2023-10-14T20:07:09.454Z,16.85
2023-10-14T20:09:11.948Z,14.60
2023-10-14T20:11:15.006Z,19.25
2023-10-14T20:13:18.405Z,21.40
2023-10-14T20:15:21.938Z,15.70
2023-10-14T20:17:23.920Z,20.88
2023-10-14T20:19:25.850Z,23.30
2023-10-14T20:21:29.830Z,23.63
2023-10-14T20:23:37.048Z,24.00
2023-10-14T20:25:41.795Z,20.25
2023-10-14T20:27:43.631Z,27.63
2023-10-14T20:29:45.445Z,20.25
2023-10-14T20:31:47.694Z,17.70
2023-10-14T20:33:52.895Z,20.33
2023-10-14T20:35:56.940Z,21.23
2023-10-14T20:38:01.852Z,20.15
2023-10-14T20:40:06.422Z,19.23
2023-10-14T20:42:12.381Z,21.15
2023-10-14T20:44:15.846Z,20.75
2023-10-14T20:46:20.924Z,18.08
2023-10-14T20:48:22.688Z,23.30
2023-10-14T20:50:28.872Z,21.30
2023-10-14T20:52:32.508Z,17.95
2023-10-14T20:54:34.300Z,15.60
2023-10-14T20:56:37.911Z,16.13
2023-10-14T20:58:39.823Z,18.05
2023-10-14T21:00:41.779Z,18.55
2023-10-14T21:02:44.451Z,24.48
2023-10-14T21:04:47.358Z,17.90
2023-10-14T21:06:54.338Z,24.33
2023-10-14T21:08:58.018Z,22.33
2023-10-14T21:10:59.989Z,23.83
2023-10-14T21:13:02.295Z,19.40
2023-10-14T21:15:04.528Z,23.40
2023-10-14T21:17:06.530Z,20.30
2023-10-14T21:19:12.134Z,19.35
2023-10-14T21:21:17.205Z,14.57
2023-10-14T21:23:20.127Z,15.48
2023-10-14T21:25:23.277Z,20.13
2023-10-14T21:27:25.165Z,13.15
2023-10-14T21:29:27.135Z,13.48
2023-10-14T21:31:29.184Z,19.52
2023-10-14T21:33:32.869Z,16.73
2023-10-14T21:37:39.652Z,20.15
2023-10-14T21:39:43.249Z,13.68
2023-10-14T21:41:45.579Z,21.77
2023-10-14T21:43:49.907Z,18.67
2023-10-14T21:45:52.558Z,19.15
2023-10-14T21:47:54.736Z,12.88
2023-10-14T21:49:58.142Z,19.98
2023-10-14T21:52:00.078Z,16.23
2023-10-14T21:54:01.900Z,16.50
2023-10-14T21:56:05.454Z,14.40
2023-10-14T21:58:08.929Z,15.73
2023-10-14T22:00:15.702Z,14.90
2023-10-14T22:02:17.620Z,14.57
2023-10-14T22:04:20.213Z,19.80
2023-10-14T22:06:23.453Z,14.85
2023-10-14T22:08:26.472Z,13.27
2023-10-14T22:10:31.100Z,14.37
2023-10-14T22:12:32.863Z,15.05
2023-10-14T22:14:37.941Z,18.33
2023-10-14T22:16:42.876Z,16.98
2023-10-14T22:18:52.287Z,16.80
2023-10-14T22:20:55.129Z,19.48
2023-10-14T22:22:58.236Z,14.30
2023-10-14T22:25:00.078Z,17.10
2023-10-14T22:27:06.168Z,12.70
2023-10-14T22:29:08.083Z,14.60
2023-10-14T22:31:11.905Z,11.57
2023-10-14T22:33:14.200Z,9.95
2023-10-14T22:35:20.949Z,17.20
2023-10-14T22:37:35.976Z,17.58
2023-10-14T22:39:39.654Z,19.58
2023-10-14T22:41:44.244Z,12.82
2023-10-14T22:43:46.244Z,17.55
2023-10-14T22:45:49.418Z,21.50
2023-10-14T22:47:54.100Z,19.15
2023-10-14T22:49:57.038Z,15.30
2023-10-14T22:51:58.858Z,16.65
2023-10-14T22:54:00.868Z,14.25
2023-10-14T22:56:07.463Z,15.82
2023-10-14T22:58:10.310Z,13.68
2023-10-14T23:00:13.647Z,10.73
2023-10-14T23:02:17.361Z,12.60
2023-10-14T23:06:23.041Z,13.48
2023-10-14T23:08:24.875Z,11.02
2023-10-14T23:10:27.997Z,15.88
2023-10-14T23:12:30.317Z,13.60
2023-10-14T23:14:34.101Z,12.18
2023-10-14T23:18:40.834Z,15.65
2023-10-14T23:20:43.542Z,13.30
2023-10-14T23:22:46.634Z,12.10
2023-10-14T23:24:49.625Z,16.38
2023-10-14T23:26:51.824Z,11.30
2023-10-14T23:28:55.072Z,12.73
2023-10-14T23:33:01.898Z,11.30
2023-10-14T23:35:10.488Z,10.18
2023-10-14T23:37:12.411Z,13.85
2023-10-14T23:39:18.590Z,12.38
2023-10-14T23:41:20.420Z,15.25
2023-10-14T23:43:22.368Z,15.18
2023-10-14T23:45:28.989Z,9.00
2023-10-14T23:47:32.313Z,14.43
2023-10-14T23:49:35.548Z,16.42
2023-10-14T23:51:37.397Z,12.70
2023-10-14T23:53:39.817Z,12.77
2023-10-14T23:55:45.039Z,13.77
2023-10-14T23:57:47.238Z,12.10
2023-10-14T23:59:49.845Z,12.93
